sensor_id;sensor_type;location;lat;lon;timestamp;P1;durP1;ratioP1;P2;durP2;ratioP2
64938;SDS011;51453;47.738;7.420;2023-02-28T00:01:21;2.78;;;1.70;;
64938;SDS011;51453;47.738;7.420;2023-02-28T00:03:47;2.58;;;1.92;;
64938;SDS011;51453;47.738;7.420;2023-02-28T00:06:13;3.63;;;2.30;;
64938;SDS011;51453;47.738;7.420;2023-02-28T00:08:38;4.05;;;2.28;;
64938;SDS011;51453;47.738;7.420;2023-02-28T00:11:05;3.25;;;2.20;;
64938;SDS011;51453;47.738;7.420;2023-02-28T00:13:33;3.25;;;2.08;;
64938;SDS011;51453;47.738;7.420;2023-02-28T00:16:03;3.63;;;2.10;;
64938;SDS011;51453;47.738;7.420;2023-02-28T00:18:31;4.03;;;2.05;;
64938;SDS011;51453;47.738;7.420;2023-02-28T00:20:58;4.10;;;1.85;;
64938;SDS011;51453;47.738;7.420;2023-02-28T00:23:24;5.85;;;2.15;;
64938;SDS011;51453;47.738;7.420;2023-02-28T00:25:50;4.47;;;2.05;;
64938;SDS011;51453;47.738;7.420;2023-02-28T00:28:16;4.72;;;2.50;;
64938;SDS011;51453;47.738;7.420;2023-02-28T00:30:42;3.08;;;2.40;;
64938;SDS011;51453;47.738;7.420;2023-02-28T00:33:08;3.38;;;2.08;;
64938;SDS011;51453;47.738;7.420;2023-02-28T00:35:34;2.58;;;2.30;;
64938;SDS011;51453;47.738;7.420;2023-02-28T00:38:00;3.97;;;2.40;;
64938;SDS011;51453;47.738;7.420;2023-02-28T00:40:25;5.43;;;2.50;;
64938;SDS011;51453;47.738;7.420;2023-02-28T00:42:51;5.47;;;2.40;;
64938;SDS011;51453;47.738;7.420;2023-02-28T00:45:17;4.47;;;2.35;;
64938;SDS011;51453;47.738;7.420;2023-02-28T00:47:42;2.90;;;2.20;;
64938;SDS011;51453;47.738;7.420;2023-02-28T00:50:08;3.80;;;2.63;;
64938;SDS011;51453;47.738;7.420;2023-02-28T00:52:35;5.60;;;2.10;;
64938;SDS011;51453;47.738;7.420;2023-02-28T00:55:00;3.17;;;2.30;;
64938;SDS011;51453;47.738;7.420;2023-02-28T00:57:26;5.78;;;2.60;;
64938;SDS011;51453;47.738;7.420;2023-02-28T00:59:52;2.47;;;2.28;;
64938;SDS011;51453;47.738;7.420;2023-02-28T01:02:19;3.03;;;2.25;;
64938;SDS011;51453;47.738;7.420;2023-02-28T01:04:46;4.97;;;2.78;;
64938;SDS011;51453;47.738;7.420;2023-02-28T01:07:12;3.35;;;2.40;;
64938;SDS011;51453;47.738;7.420;2023-02-28T01:09:39;3.25;;;2.13;;
64938;SDS011;51453;47.738;7.420;2023-02-28T01:12:06;5.70;;;2.42;;
64938;SDS011;51453;47.738;7.420;2023-02-28T01:14:33;4.38;;;2.95;;
64938;SDS011;51453;47.738;7.420;2023-02-28T01:16:59;3.58;;;2.45;;
64938;SDS011;51453;47.738;7.420;2023-02-28T01:19:25;4.13;;;2.53;;
64938;SDS011;51453;47.738;7.420;2023-02-28T01:21:50;7.47;;;2.65;;
64938;SDS011;51453;47.738;7.420;2023-02-28T01:24:16;4.80;;;2.75;;
64938;SDS011;51453;47.738;7.420;2023-02-28T01:26:42;4.05;;;2.72;;
64938;SDS011;51453;47.738;7.420;2023-02-28T01:29:07;3.88;;;2.30;;
64938;SDS011;51453;47.738;7.420;2023-02-28T01:31:33;4.72;;;2.92;;
64938;SDS011;51453;47.738;7.420;2023-02-28T01:33:59;5.25;;;3.00;;
64938;SDS011;51453;47.738;7.420;2023-02-28T01:36:25;6.38;;;2.65;;
64938;SDS011;51453;47.738;7.420;2023-02-28T01:38:51;4.22;;;2.60;;
64938;SDS011;51453;47.738;7.420;2023-02-28T01:41:21;4.75;;;2.70;;
64938;SDS011;51453;47.738;7.420;2023-02-28T01:46:14;6.35;;;2.70;;
64938;SDS011;51453;47.738;7.420;2023-02-28T01:48:49;6.57;;;2.92;;
64938;SDS011;51453;47.738;7.420;2023-02-28T01:51:22;4.32;;;2.72;;
64938;SDS011;51453;47.738;7.420;2023-02-28T01:53:57;4.82;;;3.33;;
64938;SDS011;51453;47.738;7.420;2023-02-28T01:56:28;5.60;;;2.80;;
64938;SDS011;51453;47.738;7.420;2023-02-28T01:58:57;4.43;;;2.65;;
64938;SDS011;51453;47.738;7.420;2023-02-28T02:01:24;6.25;;;2.97;;
64938;SDS011;51453;47.738;7.420;2023-02-28T02:03:59;6.13;;;3.00;;
64938;SDS011;51453;47.738;7.420;2023-02-28T02:06:29;4.97;;;2.90;;
64938;SDS011;51453;47.738;7.420;2023-02-28T02:09:00;4.55;;;3.17;;
64938;SDS011;51453;47.738;7.420;2023-02-28T02:11:26;3.55;;;2.80;;
64938;SDS011;51453;47.738;7.420;2023-02-28T02:41:33;4.60;;;2.90;;
64938;SDS011;51453;47.738;7.420;2023-02-28T02:44:17;4.45;;;2.72;;
64938;SDS011;51453;47.738;7.420;2023-02-28T02:47:17;4.68;;;2.65;;
64938;SDS011;51453;47.738;7.420;2023-02-28T02:49:47;4.05;;;2.92;;
64938;SDS011;51453;47.738;7.420;2023-02-28T02:52:18;5.20;;;3.10;;
64938;SDS011;51453;47.738;7.420;2023-02-28T02:54:49;3.85;;;2.75;;
64938;SDS011;51453;47.738;7.420;2023-02-28T02:57:21;4.78;;;2.85;;
64938;SDS011;51453;47.738;7.420;2023-02-28T02:59:50;5.32;;;3.10;;
64938;SDS011;51453;47.738;7.420;2023-02-28T03:02:18;5.13;;;2.80;;
64938;SDS011;51453;47.738;7.420;2023-02-28T03:04:58;4.68;;;3.05;;
64938;SDS011;51453;47.738;7.420;2023-02-28T03:07:27;5.10;;;2.83;;
64938;SDS011;51453;47.738;7.420;2023-02-28T03:09:54;4.95;;;2.88;;
64938;SDS011;51453;47.738;7.420;2023-02-28T03:12:22;4.05;;;3.10;;
64938;SDS011;51453;47.738;7.420;2023-02-28T03:15:00;4.32;;;2.78;;
64938;SDS011;51453;47.738;7.420;2023-02-28T03:23:19;4.82;;;2.97;;
64938;SDS011;51453;47.738;7.420;2023-02-28T03:31:20;4.65;;;3.05;;
64938;SDS011;51453;47.738;7.420;2023-02-28T03:34:01;3.92;;;2.85;;
64938;SDS011;51453;47.738;7.420;2023-02-28T03:36:46;4.55;;;2.92;;
64938;SDS011;51453;47.738;7.420;2023-02-28T03:44:45;3.45;;;2.75;;
64938;SDS011;51453;47.738;7.420;2023-02-28T03:47:16;5.13;;;2.78;;
64938;SDS011;51453;47.738;7.420;2023-02-28T03:52:20;5.25;;;2.75;;
64938;SDS011;51453;47.738;7.420;2023-02-28T03:54:48;4.30;;;2.50;;
64938;SDS011;51453;47.738;7.420;2023-02-28T03:57:22;4.78;;;2.80;;
64938;SDS011;51453;47.738;7.420;2023-02-28T04:00:02;4.47;;;2.72;;
64938;SDS011;51453;47.738;7.420;2023-02-28T04:02:35;3.60;;;3.20;;
64938;SDS011;51453;47.738;7.420;2023-02-28T04:05:01;4.38;;;3.08;;
64938;SDS011;51453;47.738;7.420;2023-02-28T04:07:30;5.07;;;3.20;;
64938;SDS011;51453;47.738;7.420;2023-02-28T04:09:55;4.50;;;2.75;;
64938;SDS011;51453;47.738;7.420;2023-02-28T04:12:21;5.32;;;3.10;;
64938;SDS011;51453;47.738;7.420;2023-02-28T04:14:48;4.15;;;2.92;;
64938;SDS011;51453;47.738;7.420;2023-02-28T04:17:14;4.85;;;3.10;;
64938;SDS011;51453;47.738;7.420;2023-02-28T04:19:43;3.63;;;2.65;;
64938;SDS011;51453;47.738;7.420;2023-02-28T04:22:09;3.88;;;2.90;;
64938;SDS011;51453;47.738;7.420;2023-02-28T04:24:35;5.43;;;2.80;;
64938;SDS011;51453;47.738;7.420;2023-02-28T04:27:01;3.42;;;2.70;;
64938;SDS011;51453;47.738;7.420;2023-02-28T04:29:28;5.63;;;3.00;;
64938;SDS011;51453;47.738;7.420;2023-02-28T04:31:55;4.57;;;3.08;;
64938;SDS011;51453;47.738;7.420;2023-02-28T04:34:28;6.25;;;2.75;;
64938;SDS011;51453;47.738;7.420;2023-02-28T04:36:56;4.80;;;2.95;;
64938;SDS011;51453;47.738;7.420;2023-02-28T04:39:23;5.13;;;2.92;;
64938;SDS011;51453;47.738;7.420;2023-02-28T04:41:50;3.97;;;2.70;;
64938;SDS011;51453;47.738;7.420;2023-02-28T04:44:15;5.65;;;2.85;;
64938;SDS011;51453;47.738;7.420;2023-02-28T04:46:41;4.45;;;2.67;;
64938;SDS011;51453;47.738;7.420;2023-02-28T04:49:08;6.03;;;3.00;;
64938;SDS011;51453;47.738;7.420;2023-02-28T04:51:37;5.20;;;3.00;;
64938;SDS011;51453;47.738;7.420;2023-02-28T04:54:02;4.72;;;3.22;;
64938;SDS011;51453;47.738;7.420;2023-02-28T04:56:29;4.05;;;3.33;;
64938;SDS011;51453;47.738;7.420;2023-02-28T04:58:55;5.45;;;3.10;;
64938;SDS011;51453;47.738;7.420;2023-02-28T05:01:28;4.15;;;3.25;;
64938;SDS011;51453;47.738;7.420;2023-02-28T05:03:55;5.80;;;2.60;;
64938;SDS011;51453;47.738;7.420;2023-02-28T05:06:23;4.80;;;3.05;;
64938;SDS011;51453;47.738;7.420;2023-02-28T05:08:52;5.32;;;3.17;;
64938;SDS011;51453;47.738;7.420;2023-02-28T05:14:01;5.65;;;3.20;;
64938;SDS011;51453;47.738;7.420;2023-02-28T05:16:28;6.57;;;3.15;;
64938;SDS011;51453;47.738;7.420;2023-02-28T05:18:54;5.80;;;3.45;;
64938;SDS011;51453;47.738;7.420;2023-02-28T05:23:51;5.10;;;4.07;;
64938;SDS011;51453;47.738;7.420;2023-02-28T05:26:17;5.80;;;3.42;;
64938;SDS011;51453;47.738;7.420;2023-02-28T05:28:43;5.18;;;3.60;;
64938;SDS011;51453;47.738;7.420;2023-02-28T05:31:12;5.97;;;3.53;;
64938;SDS011;51453;47.738;7.420;2023-02-28T05:33:38;2.92;;;2.42;;
64938;SDS011;51453;47.738;7.420;2023-02-28T05:36:04;6.22;;;3.47;;
64938;SDS011;51453;47.738;7.420;2023-02-28T05:38:31;5.43;;;3.75;;
64938;SDS011;51453;47.738;7.420;2023-02-28T05:40:56;4.93;;;3.97;;
64938;SDS011;51453;47.738;7.420;2023-02-28T05:43:22;6.20;;;3.55;;
64938;SDS011;51453;47.738;7.420;2023-02-28T05:45:48;5.30;;;4.05;;
64938;SDS011;51453;47.738;7.420;2023-02-28T05:48:14;5.47;;;4.20;;
64938;SDS011;51453;47.738;7.420;2023-02-28T05:50:39;9.73;;;3.95;;
64938;SDS011;51453;47.738;7.420;2023-02-28T05:53:05;8.60;;;4.80;;
64938;SDS011;51453;47.738;7.420;2023-02-28T05:55:31;6.22;;;3.88;;
64938;SDS011;51453;47.738;7.420;2023-02-28T05:57:57;7.30;;;4.15;;
64938;SDS011;51453;47.738;7.420;2023-02-28T06:00:23;5.57;;;4.05;;
64938;SDS011;51453;47.738;7.420;2023-02-28T06:02:49;5.45;;;3.80;;
64938;SDS011;51453;47.738;7.420;2023-02-28T06:05:15;5.70;;;4.28;;
64938;SDS011;51453;47.738;7.420;2023-02-28T06:07:43;6.47;;;4.35;;
64938;SDS011;51453;47.738;7.420;2023-02-28T06:10:10;6.85;;;4.20;;
64938;SDS011;51453;47.738;7.420;2023-02-28T06:12:36;8.20;;;4.38;;
64938;SDS011;51453;47.738;7.420;2023-02-28T06:15:03;7.43;;;5.15;;
64938;SDS011;51453;47.738;7.420;2023-02-28T06:17:29;7.28;;;4.50;;
64938;SDS011;51453;47.738;7.420;2023-02-28T06:19:54;9.30;;;5.18;;
64938;SDS011;51453;47.738;7.420;2023-02-28T06:22:20;8.95;;;5.22;;
64938;SDS011;51453;47.738;7.420;2023-02-28T06:24:46;9.80;;;5.40;;
64938;SDS011;51453;47.738;7.420;2023-02-28T06:27:11;11.50;;;5.93;;
64938;SDS011;51453;47.738;7.420;2023-02-28T06:29:37;8.70;;;5.20;;
64938;SDS011;51453;47.738;7.420;2023-02-28T06:32:04;10.50;;;5.47;;
64938;SDS011;51453;47.738;7.420;2023-02-28T06:34:31;6.55;;;5.00;;
64938;SDS011;51453;47.738;7.420;2023-02-28T06:36:59;6.85;;;5.43;;
64938;SDS011;51453;47.738;7.420;2023-02-28T06:39:27;9.18;;;5.90;;
64938;SDS011;51453;47.738;7.420;2023-02-28T06:41:54;9.25;;;6.45;;
64938;SDS011;51453;47.738;7.420;2023-02-28T06:44:19;10.13;;;6.05;;
64938;SDS011;51453;47.738;7.420;2023-02-28T06:46:46;9.88;;;7.03;;
64938;SDS011;51453;47.738;7.420;2023-02-28T06:49:12;9.38;;;6.47;;
64938;SDS011;51453;47.738;7.420;2023-02-28T06:51:39;9.30;;;6.18;;
64938;SDS011;51453;47.738;7.420;2023-02-28T06:54:06;11.40;;;7.00;;
64938;SDS011;51453;47.738;7.420;2023-02-28T06:56:35;11.27;;;6.78;;
64938;SDS011;51453;47.738;7.420;2023-02-28T06:59:01;13.68;;;7.40;;
64938;SDS011;51453;47.738;7.420;2023-02-28T07:01:29;11.48;;;7.50;;
64938;SDS011;51453;47.738;7.420;2023-02-28T07:03:58;10.38;;;7.15;;
64938;SDS011;51453;47.738;7.420;2023-02-28T07:06:25;12.68;;;7.88;;
64938;SDS011;51453;47.738;7.420;2023-02-28T07:08:52;10.65;;;7.35;;
64938;SDS011;51453;47.738;7.420;2023-02-28T07:11:19;14.30;;;7.57;;
64938;SDS011;51453;47.738;7.420;2023-02-28T07:13:47;15.00;;;8.05;;
64938;SDS011;51453;47.738;7.420;2023-02-28T07:16:14;13.32;;;8.40;;
64938;SDS011;51453;47.738;7.420;2023-02-28T07:18:39;11.40;;;6.88;;
64938;SDS011;51453;47.738;7.420;2023-02-28T07:21:06;14.45;;;8.02;;
64938;SDS011;51453;47.738;7.420;2023-02-28T07:23:33;15.98;;;7.80;;
64938;SDS011;51453;47.738;7.420;2023-02-28T07:25:59;14.48;;;8.18;;
64938;SDS011;51453;47.738;7.420;2023-02-28T07:28:25;14.18;;;8.45;;
64938;SDS011;51453;47.738;7.420;2023-02-28T07:30:51;12.43;;;7.43;;
64938;SDS011;51453;47.738;7.420;2023-02-28T07:33:17;11.60;;;7.93;;
64938;SDS011;51453;47.738;7.420;2023-02-28T07:35:43;13.30;;;7.97;;
64938;SDS011;51453;47.738;7.420;2023-02-28T07:38:08;11.40;;;8.43;;
64938;SDS011;51453;47.738;7.420;2023-02-28T07:40:34;15.90;;;7.97;;
64938;SDS011;51453;47.738;7.420;2023-02-28T07:43:01;14.27;;;7.53;;
64938;SDS011;51453;47.738;7.420;2023-02-28T07:45:28;11.40;;;8.00;;
64938;SDS011;51453;47.738;7.420;2023-02-28T07:47:54;10.02;;;7.70;;
64938;SDS011;51453;47.738;7.420;2023-02-28T07:50:20;13.70;;;8.38;;
64938;SDS011;51453;47.738;7.420;2023-02-28T07:52:46;9.55;;;6.80;;
64938;SDS011;51453;47.738;7.420;2023-02-28T07:55:12;11.30;;;7.65;;
64938;SDS011;51453;47.738;7.420;2023-02-28T07:57:39;12.20;;;7.45;;
64938;SDS011;51453;47.738;7.420;2023-02-28T08:00:06;10.82;;;7.13;;
64938;SDS011;51453;47.738;7.420;2023-02-28T08:02:34;11.77;;;7.60;;
64938;SDS011;51453;47.738;7.420;2023-02-28T08:05:00;9.38;;;6.63;;
64938;SDS011;51453;47.738;7.420;2023-02-28T08:07:26;10.52;;;6.18;;
64938;SDS011;51453;47.738;7.420;2023-02-28T08:09:52;8.02;;;6.07;;
64938;SDS011;51453;47.738;7.420;2023-02-28T08:12:18;9.70;;;6.43;;
64938;SDS011;51453;47.738;7.420;2023-02-28T08:14:43;13.23;;;7.45;;
64938;SDS011;51453;47.738;7.420;2023-02-28T08:17:09;11.07;;;7.22;;
64938;SDS011;51453;47.738;7.420;2023-02-28T08:19:36;10.52;;;6.72;;
64938;SDS011;51453;47.738;7.420;2023-02-28T08:22:01;10.88;;;6.68;;
64938;SDS011;51453;47.738;7.420;2023-02-28T08:24:27;10.68;;;6.35;;
64938;SDS011;51453;47.738;7.420;2023-02-28T08:26:53;9.98;;;6.20;;
64938;SDS011;51453;47.738;7.420;2023-02-28T08:29:18;9.82;;;6.32;;
64938;SDS011;51453;47.738;7.420;2023-02-28T08:31:44;12.63;;;6.70;;
64938;SDS011;51453;47.738;7.420;2023-02-28T08:34:11;7.63;;;6.03;;
64938;SDS011;51453;47.738;7.420;2023-02-28T08:36:39;8.25;;;6.00;;
64938;SDS011;51453;47.738;7.420;2023-02-28T08:39:05;9.35;;;6.03;;
64938;SDS011;51453;47.738;7.420;2023-02-28T08:41:32;8.88;;;6.05;;
64938;SDS011;51453;47.738;7.420;2023-02-28T08:43:58;10.65;;;6.65;;
64938;SDS011;51453;47.738;7.420;2023-02-28T08:46:24;9.73;;;6.88;;
64938;SDS011;51453;47.738;7.420;2023-02-28T08:48:53;10.07;;;7.00;;
64938;SDS011;51453;47.738;7.420;2023-02-28T08:53:51;7.88;;;5.63;;
64938;SDS011;51453;47.738;7.420;2023-02-28T08:56:17;10.07;;;6.38;;
64938;SDS011;51453;47.738;7.420;2023-02-28T08:58:44;10.10;;;6.10;;
64938;SDS011;51453;47.738;7.420;2023-02-28T09:01:21;9.18;;;5.93;;
64938;SDS011;51453;47.738;7.420;2023-02-28T09:03:49;10.02;;;6.13;;
64938;SDS011;51453;47.738;7.420;2023-02-28T09:06:16;8.75;;;6.38;;
64938;SDS011;51453;47.738;7.420;2023-02-28T09:08:43;8.60;;;6.22;;
64938;SDS011;51453;47.738;7.420;2023-02-28T09:11:09;8.50;;;6.32;;
64938;SDS011;51453;47.738;7.420;2023-02-28T09:13:35;10.07;;;6.30;;
64938;SDS011;51453;47.738;7.420;2023-02-28T09:16:02;8.05;;;6.05;;
64938;SDS011;51453;47.738;7.420;2023-02-28T09:18:30;12.15;;;6.65;;
64938;SDS011;51453;47.738;7.420;2023-02-28T09:20:56;7.95;;;5.90;;
64938;SDS011;51453;47.738;7.420;2023-02-28T09:23:23;11.52;;;6.28;;
64938;SDS011;51453;47.738;7.420;2023-02-28T09:25:53;8.93;;;6.28;;
64938;SDS011;51453;47.738;7.420;2023-02-28T09:28:19;7.90;;;6.07;;
64938;SDS011;51453;47.738;7.420;2023-02-28T09:30:47;11.02;;;6.50;;
64938;SDS011;51453;47.738;7.420;2023-02-28T09:33:15;9.93;;;6.45;;
64938;SDS011;51453;47.738;7.420;2023-02-28T09:35:42;9.70;;;6.78;;
64938;SDS011;51453;47.738;7.420;2023-02-28T09:38:08;10.80;;;6.55;;
64938;SDS011;51453;47.738;7.420;2023-02-28T09:40:36;9.93;;;6.32;;
64938;SDS011;51453;47.738;7.420;2023-02-28T09:43:27;12.05;;;6.10;;
64938;SDS011;51453;47.738;7.420;2023-02-28T09:48:33;8.75;;;6.88;;
64938;SDS011;51453;47.738;7.420;2023-02-28T09:53:36;10.85;;;6.95;;
64938;SDS011;51453;47.738;7.420;2023-02-28T09:56:06;14.90;;;7.63;;
64938;SDS011;51453;47.738;7.420;2023-02-28T09:58:56;9.27;;;6.50;;
64938;SDS011;51453;47.738;7.420;2023-02-28T10:07:10;9.23;;;6.53;;
64938;SDS011;51453;47.738;7.420;2023-02-28T10:09:52;7.30;;;6.18;;
64938;SDS011;51453;47.738;7.420;2023-02-28T10:12:20;8.93;;;5.97;;
64938;SDS011;51453;47.738;7.420;2023-02-28T10:14:47;8.20;;;6.47;;
64938;SDS011;51453;47.738;7.420;2023-02-28T10:17:18;11.80;;;5.60;;
64938;SDS011;51453;47.738;7.420;2023-02-28T10:19:51;7.57;;;5.72;;
64938;SDS011;51453;47.738;7.420;2023-02-28T10:24:52;10.25;;;7.15;;
64938;SDS011;51453;47.738;7.420;2023-02-28T10:29:49;11.10;;;7.78;;
64938;SDS011;51453;47.738;7.420;2023-02-28T10:32:17;11.30;;;8.20;;
64938;SDS011;51453;47.738;7.420;2023-02-28T10:35:31;12.75;;;7.80;;
64938;SDS011;51453;47.738;7.420;2023-02-28T10:37:44;11.35;;;7.82;;
64938;SDS011;51453;47.738;7.420;2023-02-28T10:46:16;10.75;;;7.95;;
64938;SDS011;51453;47.738;7.420;2023-02-28T10:49:20;11.13;;;8.02;;
64938;SDS011;51453;47.738;7.420;2023-02-28T10:51:42;12.80;;;7.97;;
64938;SDS011;51453;47.738;7.420;2023-02-28T10:54:50;11.68;;;7.45;;
64938;SDS011;51453;47.738;7.420;2023-02-28T10:59:50;11.48;;;7.90;;
64938;SDS011;51453;47.738;7.420;2023-02-28T11:02:31;10.20;;;7.30;;
64938;SDS011;51453;47.738;7.420;2023-02-28T11:04:57;13.10;;;7.63;;
64938;SDS011;51453;47.738;7.420;2023-02-28T11:07:23;13.43;;;7.97;;
64938;SDS011;51453;47.738;7.420;2023-02-28T11:09:52;14.70;;;7.95;;
64938;SDS011;51453;47.738;7.420;2023-02-28T11:15:00;9.95;;;7.15;;
64938;SDS011;51453;47.738;7.420;2023-02-28T11:17:30;10.60;;;7.30;;
64938;SDS011;51453;47.738;7.420;2023-02-28T11:20:06;10.75;;;7.43;;
64938;SDS011;51453;47.738;7.420;2023-02-28T11:22:43;14.90;;;7.70;;
64938;SDS011;51453;47.738;7.420;2023-02-28T11:27:58;13.63;;;7.78;;
64938;SDS011;51453;47.738;7.420;2023-02-28T11:33:22;10.13;;;7.22;;
64938;SDS011;51453;47.738;7.420;2023-02-28T11:35:53;10.77;;;7.45;;
64938;SDS011;51453;47.738;7.420;2023-02-28T11:38:23;12.23;;;7.57;;
64938;SDS011;51453;47.738;7.420;2023-02-28T11:46:35;12.65;;;8.13;;
64938;SDS011;51453;47.738;7.420;2023-02-28T11:49:16;17.23;;;7.57;;
64938;SDS011;51453;47.738;7.420;2023-02-28T11:54:57;10.60;;;6.70;;
64938;SDS011;51453;47.738;7.420;2023-02-28T11:57:51;11.43;;;7.50;;
64938;SDS011;51453;47.738;7.420;2023-02-28T12:03:34;13.32;;;7.32;;
64938;SDS011;51453;47.738;7.420;2023-02-28T12:11:58;8.32;;;6.80;;
64938;SDS011;51453;47.738;7.420;2023-02-28T12:25:50;12.32;;;8.43;;
64938;SDS011;51453;47.738;7.420;2023-02-28T12:28:30;10.93;;;7.45;;
64938;SDS011;51453;47.738;7.420;2023-02-28T12:31:20;10.25;;;7.35;;
64938;SDS011;51453;47.738;7.420;2023-02-28T12:33:55;13.00;;;8.10;;
64938;SDS011;51453;47.738;7.420;2023-02-28T12:36:25;10.50;;;7.38;;
64938;SDS011;51453;47.738;7.420;2023-02-28T12:44:07;9.40;;;7.07;;
64938;SDS011;51453;47.738;7.420;2023-02-28T12:46:51;8.88;;;7.32;;
64938;SDS011;51453;47.738;7.420;2023-02-28T12:49:27;10.68;;;7.10;;
64938;SDS011;51453;47.738;7.420;2023-02-28T12:51:56;8.85;;;7.20;;
64938;SDS011;51453;47.738;7.420;2023-02-28T13:00:36;9.70;;;6.55;;
64938;SDS011;51453;47.738;7.420;2023-02-28T13:05:49;7.57;;;6.38;;
64938;SDS011;51453;47.738;7.420;2023-02-28T13:11:05;9.18;;;6.68;;
64938;SDS011;51453;47.738;7.420;2023-02-28T13:13:31;11.25;;;6.82;;
64938;SDS011;51453;47.738;7.420;2023-02-28T13:18:38;10.88;;;7.47;;
64938;SDS011;51453;47.738;7.420;2023-02-28T13:21:08;9.40;;;7.18;;
64938;SDS011;51453;47.738;7.420;2023-02-28T13:34:39;9.00;;;6.70;;
64938;SDS011;51453;47.738;7.420;2023-02-28T13:47:31;13.68;;;7.70;;
64938;SDS011;51453;47.738;7.420;2023-02-28T13:50:27;10.65;;;7.72;;
64938;SDS011;51453;47.738;7.420;2023-02-28T13:58:26;13.18;;;8.05;;
64938;SDS011;51453;47.738;7.420;2023-02-28T14:01:12;11.05;;;8.35;;
64938;SDS011;51453;47.738;7.420;2023-02-28T14:06:34;14.68;;;8.70;;
64938;SDS011;51453;47.738;7.420;2023-02-28T14:11:37;12.98;;;7.85;;
64938;SDS011;51453;47.738;7.420;2023-02-28T14:14:04;11.60;;;8.38;;
64938;SDS011;51453;47.738;7.420;2023-02-28T14:16:36;12.32;;;8.68;;
64938;SDS011;51453;47.738;7.420;2023-02-28T14:19:10;12.63;;;8.80;;
64938;SDS011;51453;47.738;7.420;2023-02-28T14:21:50;12.75;;;9.02;;
64938;SDS011;51453;47.738;7.420;2023-02-28T14:35:45;13.45;;;8.90;;
64938;SDS011;51453;47.738;7.420;2023-02-28T14:38:18;15.32;;;9.65;;
64938;SDS011;51453;47.738;7.420;2023-02-28T14:40:49;11.45;;;8.75;;
64938;SDS011;51453;47.738;7.420;2023-02-28T14:43:22;13.68;;;9.02;;
64938;SDS011;51453;47.738;7.420;2023-02-28T14:45:50;12.27;;;8.85;;
64938;SDS011;51453;47.738;7.420;2023-02-28T14:48:19;15.00;;;9.10;;
64938;SDS011;51453;47.738;7.420;2023-02-28T14:50:51;14.18;;;9.43;;
64938;SDS011;51453;47.738;7.420;2023-02-28T14:53:19;16.52;;;9.82;;
64938;SDS011;51453;47.738;7.420;2023-02-28T14:55:47;15.32;;;9.57;;
64938;SDS011;51453;47.738;7.420;2023-02-28T15:01:00;16.52;;;9.23;;
64938;SDS011;51453;47.738;7.420;2023-02-28T15:06:02;13.57;;;7.70;;
64938;SDS011;51453;47.738;7.420;2023-02-28T15:08:30;14.20;;;9.23;;
64938;SDS011;51453;47.738;7.420;2023-02-28T15:13:44;13.32;;;9.05;;
64938;SDS011;51453;47.738;7.420;2023-02-28T15:18:58;15.75;;;9.50;;
64938;SDS011;51453;47.738;7.420;2023-02-28T15:21:34;14.40;;;9.23;;
64938;SDS011;51453;47.738;7.420;2023-02-28T15:24:16;14.30;;;8.65;;
64938;SDS011;51453;47.738;7.420;2023-02-28T15:26:57;14.48;;;9.90;;
64938;SDS011;51453;47.738;7.420;2023-02-28T15:29:25;14.35;;;9.68;;
64938;SDS011;51453;47.738;7.420;2023-02-28T15:34:39;13.50;;;9.60;;
64938;SDS011;51453;47.738;7.420;2023-02-28T15:39:56;16.48;;;9.63;;
64938;SDS011;51453;47.738;7.420;2023-02-28T15:42:29;13.50;;;9.15;;
64938;SDS011;51453;47.738;7.420;2023-02-28T15:44:56;14.57;;;9.60;;
64938;SDS011;51453;47.738;7.420;2023-02-28T15:47:23;14.10;;;9.70;;
64938;SDS011;51453;47.738;7.420;2023-02-28T15:52:22;13.25;;;9.48;;
64938;SDS011;51453;47.738;7.420;2023-02-28T15:55:07;14.93;;;10.05;;
64938;SDS011;51453;47.738;7.420;2023-02-28T15:57:38;14.55;;;9.77;;
64938;SDS011;51453;47.738;7.420;2023-02-28T16:00:05;14.43;;;10.02;;
64938;SDS011;51453;47.738;7.420;2023-02-28T16:02:36;15.57;;;9.85;;
64938;SDS011;51453;47.738;7.420;2023-02-28T16:07:32;16.38;;;10.15;;
64938;SDS011;51453;47.738;7.420;2023-02-28T16:09:59;16.65;;;10.13;;
64938;SDS011;51453;47.738;7.420;2023-02-28T16:12:28;13.77;;;9.88;;
64938;SDS011;51453;47.738;7.420;2023-02-28T16:14:58;14.55;;;10.02;;
64938;SDS011;51453;47.738;7.420;2023-02-28T16:17:28;13.02;;;9.35;;
64938;SDS011;51453;47.738;7.420;2023-02-28T16:19:57;16.63;;;9.88;;
64938;SDS011;51453;47.738;7.420;2023-02-28T16:22:23;15.05;;;9.95;;
64938;SDS011;51453;47.738;7.420;2023-02-28T16:24:49;18.10;;;9.80;;
64938;SDS011;51453;47.738;7.420;2023-02-28T16:27:35;13.27;;;9.73;;
64938;SDS011;51453;47.738;7.420;2023-02-28T16:30:02;13.60;;;9.60;;
64938;SDS011;51453;47.738;7.420;2023-02-28T16:32:29;16.05;;;10.38;;
64938;SDS011;51453;47.738;7.420;2023-02-28T16:34:57;18.00;;;9.77;;
64938;SDS011;51453;47.738;7.420;2023-02-28T16:37:23;12.20;;;9.60;;
64938;SDS011;51453;47.738;7.420;2023-02-28T16:39:48;16.75;;;9.80;;
64938;SDS011;51453;47.738;7.420;2023-02-28T16:42:18;15.05;;;9.88;;
64938;SDS011;51453;47.738;7.420;2023-02-28T16:44:47;14.93;;;10.10;;
64938;SDS011;51453;47.738;7.420;2023-02-28T16:47:14;16.02;;;10.27;;
64938;SDS011;51453;47.738;7.420;2023-02-28T16:49:40;15.05;;;10.07;;
64938;SDS011;51453;47.738;7.420;2023-02-28T16:52:07;16.88;;;9.95;;
64938;SDS011;51453;47.738;7.420;2023-02-28T16:54:34;13.13;;;9.65;;
64938;SDS011;51453;47.738;7.420;2023-02-28T16:56:59;19.10;;;11.07;;
64938;SDS011;51453;47.738;7.420;2023-02-28T16:59:25;14.00;;;10.30;;
64938;SDS011;51453;47.738;7.420;2023-02-28T17:01:52;15.90;;;10.57;;
64938;SDS011;51453;47.738;7.420;2023-02-28T17:04:20;15.13;;;10.30;;
64938;SDS011;51453;47.738;7.420;2023-02-28T17:06:46;14.38;;;9.75;;
64938;SDS011;51453;47.738;7.420;2023-02-28T17:09:19;15.23;;;10.02;;
64938;SDS011;51453;47.738;7.420;2023-02-28T17:11:46;18.25;;;10.73;;
64938;SDS011;51453;47.738;7.420;2023-02-28T17:14:13;17.05;;;10.60;;
64938;SDS011;51453;47.738;7.420;2023-02-28T17:16:40;16.33;;;11.48;;
64938;SDS011;51453;47.738;7.420;2023-02-28T17:19:09;15.05;;;10.48;;
64938;SDS011;51453;47.738;7.420;2023-02-28T17:21:37;15.57;;;10.60;;
64938;SDS011;51453;47.738;7.420;2023-02-28T17:24:06;17.75;;;10.50;;
64938;SDS011;51453;47.738;7.420;2023-02-28T17:26:32;13.65;;;10.18;;
64938;SDS011;51453;47.738;7.420;2023-02-28T17:29:01;14.95;;;10.27;;
64938;SDS011;51453;47.738;7.420;2023-02-28T17:31:26;15.15;;;10.32;;
64938;SDS011;51453;47.738;7.420;2023-02-28T17:33:52;15.25;;;10.40;;
64938;SDS011;51453;47.738;7.420;2023-02-28T17:36:22;17.20;;;10.85;;
64938;SDS011;51453;47.738;7.420;2023-02-28T17:38:52;14.70;;;7.90;;
64938;SDS011;51453;47.738;7.420;2023-02-28T17:41:19;14.70;;;10.23;;
64938;SDS011;51453;47.738;7.420;2023-02-28T17:43:46;16.67;;;10.68;;
64938;SDS011;51453;47.738;7.420;2023-02-28T17:46:16;16.10;;;10.23;;
64938;SDS011;51453;47.738;7.420;2023-02-28T17:48:45;15.63;;;10.43;;
64938;SDS011;51453;47.738;7.420;2023-02-28T17:51:14;16.13;;;10.55;;
64938;SDS011;51453;47.738;7.420;2023-02-28T17:53:40;15.73;;;10.93;;
64938;SDS011;51453;47.738;7.420;2023-02-28T17:56:13;17.98;;;11.52;;
64938;SDS011;51453;47.738;7.420;2023-02-28T17:58:40;18.25;;;11.68;;
64938;SDS011;51453;47.738;7.420;2023-02-28T18:01:07;18.33;;;11.40;;
64938;SDS011;51453;47.738;7.420;2023-02-28T18:03:32;18.08;;;12.10;;
64938;SDS011;51453;47.738;7.420;2023-02-28T18:05:58;21.17;;;12.05;;
64938;SDS011;51453;47.738;7.420;2023-02-28T18:08:24;18.33;;;11.68;;
64938;SDS011;51453;47.738;7.420;2023-02-28T18:10:50;18.77;;;11.90;;
64938;SDS011;51453;47.738;7.420;2023-02-28T18:13:17;20.00;;;11.93;;
64938;SDS011;51453;47.738;7.420;2023-02-28T18:15:42;19.23;;;12.32;;